createdAt,value
2019-02-07T00:00:58.811Z,7.23
2019-02-07T00:11:03.912Z,8.00
2019-02-07T00:21:09.060Z,9.67
2019-02-07T00:31:14.194Z,7.47
2019-02-07T00:41:19.375Z,7.47
2019-02-07T00:51:24.481Z,11.30
2019-02-07T01:01:29.665Z,7.40
2019-02-07T01:11:34.778Z,7.90
2019-02-07T01:21:39.913Z,8.10
2019-02-07T01:31:45.099Z,8.03
2019-02-07T01:41:50.203Z,7.77
2019-02-07T01:51:55.307Z,6.50
2019-02-07T04:10:43.128Z,5.80
2019-02-07T04:21:09.107Z,7.00
2019-02-07T04:31:51.552Z,6.10
2019-02-07T04:42:22.582Z,5.97
2019-02-07T04:52:37.228Z,5.67
2019-02-07T05:03:07.355Z,6.23
2019-02-07T05:13:29.630Z,5.60
2019-02-07T05:23:59.503Z,5.47
2019-02-07T05:34:21.334Z,5.20
2019-02-07T05:44:44.306Z,5.10
2019-02-07T05:55:08.156Z,6.40
2019-02-07T06:05:24.332Z,5.70
2019-02-07T06:15:50.685Z,5.87
2019-02-07T06:26:13.751Z,5.93
2019-02-07T06:36:49.927Z,7.83
2019-02-07T06:47:13.835Z,5.13
2019-02-07T06:57:46.840Z,5.30
2019-02-07T07:08:09.739Z,5.43
2019-02-07T07:18:33.793Z,5.93
2019-02-07T07:29:00.643Z,4.50
2019-02-07T07:39:34.223Z,5.00
2019-02-07T07:49:54.679Z,5.20
2019-02-07T08:00:30.876Z,8.17
2019-02-07T08:10:44.183Z,7.10
2019-02-07T08:21:14.451Z,4.47
2019-02-07T08:31:44.216Z,5.17
2019-02-07T08:42:13.266Z,5.00
2019-02-07T09:04:07.222Z,20.97
2019-02-07T09:14:26.807Z,17.53
2019-02-07T09:25:03.310Z,13.37
2019-02-07T09:35:33.785Z,11.20
2019-02-07T09:45:50.777Z,11.83
2019-02-07T09:56:06.092Z,14.70
2019-02-07T10:06:36.858Z,10.03
2019-02-07T10:16:53.149Z,9.50
2019-02-07T10:27:16.231Z,7.47
2019-02-07T10:37:44.645Z,8.80
2019-02-07T10:48:03.379Z,7.93
2019-02-07T10:58:26.297Z,12.63
2019-02-07T11:08:49.254Z,10.07
2019-02-07T11:19:31.744Z,8.40
2019-02-07T11:29:48.334Z,10.63
2019-02-07T11:40:27.913Z,14.97
2019-02-07T11:51:01.812Z,9.07
2019-02-07T12:01:35.537Z,11.40
2019-02-07T12:11:57.789Z,8.50
2019-02-07T12:22:24.932Z,7.53
2019-02-07T12:32:45.360Z,7.47
2019-02-07T12:43:09.358Z,9.40
2019-02-07T12:53:51.873Z,12.00
2019-02-07T13:04:22.031Z,8.67
2019-02-07T13:14:50.080Z,8.50
2019-02-07T13:25:20.594Z,8.87
2019-02-07T13:35:47.497Z,7.17
2019-02-07T13:46:23.998Z,8.27
2019-02-07T13:57:01.070Z,7.03
2019-02-07T14:07:28.284Z,7.47
2019-02-07T14:17:58.419Z,6.90
2019-02-07T14:28:28.643Z,7.10
2019-02-07T14:38:51.419Z,7.67
2019-02-07T14:48:56.950Z,11.53
2019-02-07T14:59:02.088Z,6.23
2019-02-07T15:09:16.175Z,8.80
2019-02-07T15:19:21.397Z,7.73
2019-02-07T15:29:26.813Z,6.80
2019-02-07T15:39:32.298Z,6.57
2019-02-07T15:49:37.439Z,6.43
2019-02-07T15:59:50.567Z,7.93
2019-02-07T16:10:03.372Z,6.33
2019-02-07T16:20:12.625Z,6.47
2019-02-07T16:30:17.881Z,6.40
2019-02-07T16:40:23.108Z,5.97
2019-02-07T16:50:28.482Z,7.20
2019-02-07T17:00:33.701Z,5.97
2019-02-07T17:10:39.030Z,5.80
2019-02-07T17:20:44.237Z,5.40
2019-02-07T17:30:49.813Z,7.43
2019-02-07T17:40:54.980Z,5.70
2019-02-07T17:51:00.215Z,9.40
2019-02-07T18:01:08.702Z,5.70
2019-02-07T18:11:14.252Z,6.70
2019-02-07T18:21:20.352Z,5.50
2019-02-07T18:31:25.946Z,6.23
2019-02-07T18:41:31.079Z,6.57
2019-02-07T18:51:45.325Z,6.00
2019-02-07T19:01:43.174Z,5.93
2019-02-07T19:11:48.642Z,7.10
2019-02-07T19:21:57.197Z,7.50
2019-02-07T19:32:00.816Z,6.47
2019-02-07T19:42:05.956Z,7.73
2019-02-07T19:52:11.238Z,5.50
2019-02-07T20:02:16.370Z,5.10
2019-02-07T20:12:21.584Z,5.20
2019-02-07T20:22:27.021Z,5.00
2019-02-07T20:32:32.232Z,5.53
2019-02-07T20:42:37.645Z,6.20
2019-02-07T20:52:42.850Z,6.33
2019-02-07T21:02:48.158Z,5.87
2019-02-07T21:12:53.388Z,5.00
2019-02-07T21:22:59.958Z,5.90
2019-02-07T21:33:05.308Z,5.67
2019-02-07T21:43:10.531Z,5.93
2019-02-07T21:53:16.024Z,7.17
2019-02-07T22:03:21.477Z,5.13
2019-02-07T22:13:26.951Z,5.20
2019-02-07T22:23:33.190Z,4.80
2019-02-07T22:33:38.412Z,5.67
2019-02-07T22:43:43.906Z,5.10
2019-02-07T22:53:49.035Z,5.37
2019-02-07T23:03:56.437Z,5.40
2019-02-07T23:14:02.098Z,4.87
2019-02-07T23:24:07.811Z,5.90
2019-02-07T23:34:14.016Z,5.80
2019-02-07T23:44:19.155Z,4.53
2019-02-07T23:54:24.290Z,5.17
